sensor_id;sensor_type;location;lat;lon;timestamp;P1;P2;P0
65012;PMS5003;51715;39.432;-77.518;2022-07-30T00:01:58;9;9;
65012;PMS5003;51715;39.432;-77.518;2022-07-30T00:04:28;14;13;
65012;PMS5003;51715;39.432;-77.518;2022-07-30T00:06:57;12;12;
65012;PMS5003;51715;39.432;-77.518;2022-07-30T00:09:26;10;10;
65012;PMS5003;51715;39.432;-77.518;2022-07-30T00:11:56;15;15;
65012;PMS5003;51715;39.432;-77.518;2022-07-30T00:14:24;10;10;
65012;PMS5003;51715;39.432;-77.518;2022-07-30T00:16:52;11;11;
65012;PMS5003;51715;39.432;-77.518;2022-07-30T00:19:20;10;10;
65012;PMS5003;51715;39.432;-77.518;2022-07-30T00:21:49;10;10;
65012;PMS5003;51715;39.432;-77.518;2022-07-30T00:24:17;12;10;
65012;PMS5003;51715;39.432;-77.518;2022-07-30T00:26:46;13;13;
65012;PMS5003;51715;39.432;-77.518;2022-07-30T00:29:14;12;11;
65012;PMS5003;51715;39.432;-77.518;2022-07-30T00:31:43;14;14;
65012;PMS5003;51715;39.432;-77.518;2022-07-30T00:34:12;15;12;
65012;PMS5003;51715;39.432;-77.518;2022-07-30T00:36:41;13;13;
65012;PMS5003;51715;39.432;-77.518;2022-07-30T00:39:09;19;19;
65012;PMS5003;51715;39.432;-77.518;2022-07-30T00:41:52;15;15;
65012;PMS5003;51715;39.432;-77.518;2022-07-30T00:44:22;16;15;
65012;PMS5003;51715;39.432;-77.518;2022-07-30T00:46:51;19;14;
65012;PMS5003;51715;39.432;-77.518;2022-07-30T00:49:20;20;17;
65012;PMS5003;51715;39.432;-77.518;2022-07-30T00:51:50;13;13;
65012;PMS5003;51715;39.432;-77.518;2022-07-30T00:54:19;21;19;
65012;PMS5003;51715;39.432;-77.518;2022-07-30T00:56:48;12;10;
65012;PMS5003;51715;39.432;-77.518;2022-07-30T00:59:17;19;18;
65012;PMS5003;51715;39.432;-77.518;2022-07-30T01:01:46;15;15;
65012;PMS5003;51715;39.432;-77.518;2022-07-30T01:04:15;11;11;
65012;PMS5003;51715;39.432;-77.518;2022-07-30T01:06:42;16;15;
65012;PMS5003;51715;39.432;-77.518;2022-07-30T01:09:12;12;12;
65012;PMS5003;51715;39.432;-77.518;2022-07-30T01:11:41;14;14;
65012;PMS5003;51715;39.432;-77.518;2022-07-30T01:14:11;14;14;
65012;PMS5003;51715;39.432;-77.518;2022-07-30T01:16:40;11;10;
65012;PMS5003;51715;39.432;-77.518;2022-07-30T01:19:10;9;9;
65012;PMS5003;51715;39.432;-77.518;2022-07-30T01:21:47;12;12;
65012;PMS5003;51715;39.432;-77.518;2022-07-30T01:24:34;11;11;
65012;PMS5003;51715;39.432;-77.518;2022-07-30T01:27:08;14;14;
65012;PMS5003;51715;39.432;-77.518;2022-07-30T01:29:38;10;10;
65012;PMS5003;51715;39.432;-77.518;2022-07-30T01:32:10;12;11;
65012;PMS5003;51715;39.432;-77.518;2022-07-30T01:34:42;11;10;
65012;PMS5003;51715;39.432;-77.518;2022-07-30T01:37:12;7;7;
65012;PMS5003;51715;39.432;-77.518;2022-07-30T01:39:43;9;9;
65012;PMS5003;51715;39.432;-77.518;2022-07-30T01:42:11;10;10;
65012;PMS5003;51715;39.432;-77.518;2022-07-30T01:44:42;12;11;
65012;PMS5003;51715;39.432;-77.518;2022-07-30T01:47:11;11;11;
65012;PMS5003;51715;39.432;-77.518;2022-07-30T01:49:43;11;11;
65012;PMS5003;51715;39.432;-77.518;2022-07-30T01:52:13;9;9;
65012;PMS5003;51715;39.432;-77.518;2022-07-30T01:54:44;10;10;
65012;PMS5003;51715;39.432;-77.518;2022-07-30T01:57:16;9;9;
65012;PMS5003;51715;39.432;-77.518;2022-07-30T01:59:48;10;8;
65012;PMS5003;51715;39.432;-77.518;2022-07-30T02:02:21;15;12;
65012;PMS5003;51715;39.432;-77.518;2022-07-30T02:04:49;9;9;
65012;PMS5003;51715;39.432;-77.518;2022-07-30T02:07:18;13;13;
65012;PMS5003;51715;39.432;-77.518;2022-07-30T02:09:52;13;11;
65012;PMS5003;51715;39.432;-77.518;2022-07-30T02:12:25;13;12;
65012;PMS5003;51715;39.432;-77.518;2022-07-30T02:15:02;11;10;
65012;PMS5003;51715;39.432;-77.518;2022-07-30T02:21:23;11;10;
65012;PMS5003;51715;39.432;-77.518;2022-07-30T02:23:53;10;10;
65012;PMS5003;51715;39.432;-77.518;2022-07-30T02:26:23;13;12;
65012;PMS5003;51715;39.432;-77.518;2022-07-30T02:28:55;13;13;
65012;PMS5003;51715;39.432;-77.518;2022-07-30T02:31:26;11;11;
65012;PMS5003;51715;39.432;-77.518;2022-07-30T02:33:57;9;9;
65012;PMS5003;51715;39.432;-77.518;2022-07-30T02:36:28;13;12;
65012;PMS5003;51715;39.432;-77.518;2022-07-30T02:38:58;12;11;
65012;PMS5003;51715;39.432;-77.518;2022-07-30T02:41:28;14;14;
65012;PMS5003;51715;39.432;-77.518;2022-07-30T02:43:58;11;11;
65012;PMS5003;51715;39.432;-77.518;2022-07-30T02:46:28;15;15;
65012;PMS5003;51715;39.432;-77.518;2022-07-30T02:48:58;18;18;
65012;PMS5003;51715;39.432;-77.518;2022-07-30T02:51:26;17;15;
65012;PMS5003;51715;39.432;-77.518;2022-07-30T02:53:55;18;15;
65012;PMS5003;51715;39.432;-77.518;2022-07-30T02:56:26;13;13;
65012;PMS5003;51715;39.432;-77.518;2022-07-30T02:58:56;11;11;
65012;PMS5003;51715;39.432;-77.518;2022-07-30T03:01:27;15;13;
65012;PMS5003;51715;39.432;-77.518;2022-07-30T03:03:58;15;14;
65012;PMS5003;51715;39.432;-77.518;2022-07-30T03:06:28;14;12;
65012;PMS5003;51715;39.432;-77.518;2022-07-30T03:08:58;11;11;
65012;PMS5003;51715;39.432;-77.518;2022-07-30T03:11:28;14;14;
65012;PMS5003;51715;39.432;-77.518;2022-07-30T03:14:00;18;12;
65012;PMS5003;51715;39.432;-77.518;2022-07-30T03:16:29;14;13;
65012;PMS5003;51715;39.432;-77.518;2022-07-30T03:19:00;11;11;
65012;PMS5003;51715;39.432;-77.518;2022-07-30T03:21:32;14;11;
65012;PMS5003;51715;39.432;-77.518;2022-07-30T03:24:04;12;10;
65012;PMS5003;51715;39.432;-77.518;2022-07-30T03:26:35;12;11;
65012;PMS5003;51715;39.432;-77.518;2022-07-30T03:29:05;16;12;
65012;PMS5003;51715;39.432;-77.518;2022-07-30T03:31:35;16;12;
65012;PMS5003;51715;39.432;-77.518;2022-07-30T03:34:04;12;12;
65012;PMS5003;51715;39.432;-77.518;2022-07-30T03:36:34;14;12;
65012;PMS5003;51715;39.432;-77.518;2022-07-30T03:39:03;14;14;
65012;PMS5003;51715;39.432;-77.518;2022-07-30T03:41:33;14;12;
65012;PMS5003;51715;39.432;-77.518;2022-07-30T03:44:03;10;10;
65012;PMS5003;51715;39.432;-77.518;2022-07-30T03:46:34;16;16;
65012;PMS5003;51715;39.432;-77.518;2022-07-30T03:49:03;11;10;
65012;PMS5003;51715;39.432;-77.518;2022-07-30T03:51:32;13;13;
65012;PMS5003;51715;39.432;-77.518;2022-07-30T03:54:03;14;13;
65012;PMS5003;51715;39.432;-77.518;2022-07-30T03:56:31;12;12;
65012;PMS5003;51715;39.432;-77.518;2022-07-30T03:59:00;13;12;
65012;PMS5003;51715;39.432;-77.518;2022-07-30T04:03:51;10;10;
65012;PMS5003;51715;39.432;-77.518;2022-07-30T04:06:21;16;15;
65012;PMS5003;51715;39.432;-77.518;2022-07-30T04:08:50;17;16;
65012;PMS5003;51715;39.432;-77.518;2022-07-30T04:11:18;13;13;
65012;PMS5003;51715;39.432;-77.518;2022-07-30T04:13:47;17;15;
65012;PMS5003;51715;39.432;-77.518;2022-07-30T04:16:15;13;13;
65012;PMS5003;51715;39.432;-77.518;2022-07-30T04:18:50;11;11;
65012;PMS5003;51715;39.432;-77.518;2022-07-30T04:21:22;11;11;
65012;PMS5003;51715;39.432;-77.518;2022-07-30T04:23:52;14;11;
65012;PMS5003;51715;39.432;-77.518;2022-07-30T04:26:24;12;11;
65012;PMS5003;51715;39.432;-77.518;2022-07-30T04:28:52;12;12;
65012;PMS5003;51715;39.432;-77.518;2022-07-30T04:31:20;13;11;
65012;PMS5003;51715;39.432;-77.518;2022-07-30T04:33:49;16;13;
65012;PMS5003;51715;39.432;-77.518;2022-07-30T04:36:17;11;11;
65012;PMS5003;51715;39.432;-77.518;2022-07-30T04:38:46;19;19;
65012;PMS5003;51715;39.432;-77.518;2022-07-30T04:41:14;14;13;
65012;PMS5003;51715;39.432;-77.518;2022-07-30T04:43:42;13;13;
65012;PMS5003;51715;39.432;-77.518;2022-07-30T04:46:11;11;11;
65012;PMS5003;51715;39.432;-77.518;2022-07-30T04:48:40;14;14;
65012;PMS5003;51715;39.432;-77.518;2022-07-30T04:51:08;17;14;
65012;PMS5003;51715;39.432;-77.518;2022-07-30T04:53:43;14;14;
65012;PMS5003;51715;39.432;-77.518;2022-07-30T04:56:12;14;14;
65012;PMS5003;51715;39.432;-77.518;2022-07-30T04:58:43;13;13;
65012;PMS5003;51715;39.432;-77.518;2022-07-30T05:01:15;13;13;
65012;PMS5003;51715;39.432;-77.518;2022-07-30T05:03:51;17;17;
65012;PMS5003;51715;39.432;-77.518;2022-07-30T05:06:19;13;12;
65012;PMS5003;51715;39.432;-77.518;2022-07-30T05:08:48;17;15;
65012;PMS5003;51715;39.432;-77.518;2022-07-30T05:11:17;15;15;
65012;PMS5003;51715;39.432;-77.518;2022-07-30T05:13:46;12;12;
65012;PMS5003;51715;39.432;-77.518;2022-07-30T05:16:15;15;14;
65012;PMS5003;51715;39.432;-77.518;2022-07-30T05:18:44;12;12;
65012;PMS5003;51715;39.432;-77.518;2022-07-30T05:21:13;14;12;
65012;PMS5003;51715;39.432;-77.518;2022-07-30T05:23:42;10;10;
65012;PMS5003;51715;39.432;-77.518;2022-07-30T05:26:10;10;10;
65012;PMS5003;51715;39.432;-77.518;2022-07-30T05:28:39;15;14;
65012;PMS5003;51715;39.432;-77.518;2022-07-30T05:31:07;12;12;
65012;PMS5003;51715;39.432;-77.518;2022-07-30T05:33:36;16;16;
65012;PMS5003;51715;39.432;-77.518;2022-07-30T05:36:04;14;14;
65012;PMS5003;51715;39.432;-77.518;2022-07-30T05:38:33;12;12;
65012;PMS5003;51715;39.432;-77.518;2022-07-30T05:41:01;13;13;
65012;PMS5003;51715;39.432;-77.518;2022-07-30T05:43:29;11;10;
65012;PMS5003;51715;39.432;-77.518;2022-07-30T05:45:57;13;13;
65012;PMS5003;51715;39.432;-77.518;2022-07-30T05:48:24;13;13;
65012;PMS5003;51715;39.432;-77.518;2022-07-30T05:50:53;12;12;
65012;PMS5003;51715;39.432;-77.518;2022-07-30T05:53:21;12;12;
65012;PMS5003;51715;39.432;-77.518;2022-07-30T05:55:50;14;14;
65012;PMS5003;51715;39.432;-77.518;2022-07-30T05:58:19;13;12;
65012;PMS5003;51715;39.432;-77.518;2022-07-30T06:00:47;11;10;
65012;PMS5003;51715;39.432;-77.518;2022-07-30T06:03:16;16;16;
65012;PMS5003;51715;39.432;-77.518;2022-07-30T06:05:44;11;11;
65012;PMS5003;51715;39.432;-77.518;2022-07-30T06:08:13;13;13;
65012;PMS5003;51715;39.432;-77.518;2022-07-30T06:10:41;13;13;
65012;PMS5003;51715;39.432;-77.518;2022-07-30T06:13:09;13;12;
65012;PMS5003;51715;39.432;-77.518;2022-07-30T06:15:37;14;14;
65012;PMS5003;51715;39.432;-77.518;2022-07-30T06:18:09;14;12;
65012;PMS5003;51715;39.432;-77.518;2022-07-30T06:20:37;12;12;
65012;PMS5003;51715;39.432;-77.518;2022-07-30T06:23:09;11;11;
65012;PMS5003;51715;39.432;-77.518;2022-07-30T06:25:37;14;12;
65012;PMS5003;51715;39.432;-77.518;2022-07-30T06:28:05;11;11;
65012;PMS5003;51715;39.432;-77.518;2022-07-30T06:30:33;11;11;
65012;PMS5003;51715;39.432;-77.518;2022-07-30T06:33:01;11;11;
65012;PMS5003;51715;39.432;-77.518;2022-07-30T06:35:29;14;14;
65012;PMS5003;51715;39.432;-77.518;2022-07-30T06:37:57;11;11;
65012;PMS5003;51715;39.432;-77.518;2022-07-30T06:40:25;9;9;
65012;PMS5003;51715;39.432;-77.518;2022-07-30T06:42:54;11;11;
65012;PMS5003;51715;39.432;-77.518;2022-07-30T06:45:23;11;11;
65012;PMS5003;51715;39.432;-77.518;2022-07-30T06:47:55;13;13;
65012;PMS5003;51715;39.432;-77.518;2022-07-30T06:50:24;13;11;
65012;PMS5003;51715;39.432;-77.518;2022-07-30T06:52:52;14;14;
65012;PMS5003;51715;39.432;-77.518;2022-07-30T06:55:21;11;11;
65012;PMS5003;51715;39.432;-77.518;2022-07-30T06:57:48;16;15;
65012;PMS5003;51715;39.432;-77.518;2022-07-30T07:00:17;15;15;
65012;PMS5003;51715;39.432;-77.518;2022-07-30T07:02:45;12;12;
65012;PMS5003;51715;39.432;-77.518;2022-07-30T07:05:14;16;15;
65012;PMS5003;51715;39.432;-77.518;2022-07-30T07:07:42;14;13;
65012;PMS5003;51715;39.432;-77.518;2022-07-30T07:10:10;13;12;
65012;PMS5003;51715;39.432;-77.518;2022-07-30T07:12:39;13;12;
65012;PMS5003;51715;39.432;-77.518;2022-07-30T07:15:08;13;13;
65012;PMS5003;51715;39.432;-77.518;2022-07-30T07:17:36;12;11;
65012;PMS5003;51715;39.432;-77.518;2022-07-30T07:20:05;10;10;
65012;PMS5003;51715;39.432;-77.518;2022-07-30T07:22:35;11;11;
65012;PMS5003;51715;39.432;-77.518;2022-07-30T07:25:03;13;13;
65012;PMS5003;51715;39.432;-77.518;2022-07-30T07:27:32;15;12;
65012;PMS5003;51715;39.432;-77.518;2022-07-30T07:30:00;13;12;
65012;PMS5003;51715;39.432;-77.518;2022-07-30T07:32:29;13;13;
65012;PMS5003;51715;39.432;-77.518;2022-07-30T07:34:58;14;13;
65012;PMS5003;51715;39.432;-77.518;2022-07-30T07:37:27;13;13;
65012;PMS5003;51715;39.432;-77.518;2022-07-30T07:39:56;10;10;
65012;PMS5003;51715;39.432;-77.518;2022-07-30T07:42:24;13;13;
65012;PMS5003;51715;39.432;-77.518;2022-07-30T07:44:53;11;11;
65012;PMS5003;51715;39.432;-77.518;2022-07-30T07:47:22;16;15;
65012;PMS5003;51715;39.432;-77.518;2022-07-30T07:49:53;12;12;
65012;PMS5003;51715;39.432;-77.518;2022-07-30T07:52:22;12;12;
65012;PMS5003;51715;39.432;-77.518;2022-07-30T07:54:50;14;13;
65012;PMS5003;51715;39.432;-77.518;2022-07-30T07:57:18;15;14;
65012;PMS5003;51715;39.432;-77.518;2022-07-30T07:59:46;12;11;
65012;PMS5003;51715;39.432;-77.518;2022-07-30T08:02:14;13;12;
65012;PMS5003;51715;39.432;-77.518;2022-07-30T08:04:43;15;14;
65012;PMS5003;51715;39.432;-77.518;2022-07-30T08:07:12;16;15;
65012;PMS5003;51715;39.432;-77.518;2022-07-30T08:09:40;12;12;
65012;PMS5003;51715;39.432;-77.518;2022-07-30T08:12:08;13;13;
65012;PMS5003;51715;39.432;-77.518;2022-07-30T08:14:37;10;10;
65012;PMS5003;51715;39.432;-77.518;2022-07-30T08:17:06;11;11;
65012;PMS5003;51715;39.432;-77.518;2022-07-30T08:19:33;11;10;
65012;PMS5003;51715;39.432;-77.518;2022-07-30T08:22:02;12;12;
65012;PMS5003;51715;39.432;-77.518;2022-07-30T08:24:30;15;14;
65012;PMS5003;51715;39.432;-77.518;2022-07-30T08:26:59;15;14;
65012;PMS5003;51715;39.432;-77.518;2022-07-30T08:29:27;13;13;
65012;PMS5003;51715;39.432;-77.518;2022-07-30T08:31:56;15;15;
65012;PMS5003;51715;39.432;-77.518;2022-07-30T08:34:24;10;10;
65012;PMS5003;51715;39.432;-77.518;2022-07-30T08:36:53;11;11;
65012;PMS5003;51715;39.432;-77.518;2022-07-30T08:39:22;14;12;
65012;PMS5003;51715;39.432;-77.518;2022-07-30T08:41:51;16;16;
65012;PMS5003;51715;39.432;-77.518;2022-07-30T08:44:19;10;10;
65012;PMS5003;51715;39.432;-77.518;2022-07-30T08:46:50;12;11;
65012;PMS5003;51715;39.432;-77.518;2022-07-30T08:49:19;13;13;
65012;PMS5003;51715;39.432;-77.518;2022-07-30T08:51:48;13;13;
65012;PMS5003;51715;39.432;-77.518;2022-07-30T08:54:17;15;15;
65012;PMS5003;51715;39.432;-77.518;2022-07-30T08:56:45;13;12;
65012;PMS5003;51715;39.432;-77.518;2022-07-30T08:59:14;14;13;
65012;PMS5003;51715;39.432;-77.518;2022-07-30T09:01:43;11;11;
65012;PMS5003;51715;39.432;-77.518;2022-07-30T09:04:11;15;12;
65012;PMS5003;51715;39.432;-77.518;2022-07-30T09:06:39;13;13;
65012;PMS5003;51715;39.432;-77.518;2022-07-30T09:09:07;13;12;
65012;PMS5003;51715;39.432;-77.518;2022-07-30T09:11:36;14;14;
65012;PMS5003;51715;39.432;-77.518;2022-07-30T09:14:08;11;11;
65012;PMS5003;51715;39.432;-77.518;2022-07-30T09:16:37;11;11;
65012;PMS5003;51715;39.432;-77.518;2022-07-30T09:19:10;15;13;
65012;PMS5003;51715;39.432;-77.518;2022-07-30T09:21:41;15;14;
65012;PMS5003;51715;39.432;-77.518;2022-07-30T09:24:20;8;8;
65012;PMS5003;51715;39.432;-77.518;2022-07-30T09:26:53;13;12;
65012;PMS5003;51715;39.432;-77.518;2022-07-30T09:29:23;11;11;
65012;PMS5003;51715;39.432;-77.518;2022-07-30T09:31:55;11;11;
65012;PMS5003;51715;39.432;-77.518;2022-07-30T09:34:25;12;10;
65012;PMS5003;51715;39.432;-77.518;2022-07-30T09:36:55;18;15;
65012;PMS5003;51715;39.432;-77.518;2022-07-30T09:39:29;13;13;
65012;PMS5003;51715;39.432;-77.518;2022-07-30T09:41:58;10;10;
65012;PMS5003;51715;39.432;-77.518;2022-07-30T09:44:27;13;12;
65012;PMS5003;51715;39.432;-77.518;2022-07-30T09:46:57;13;13;
65012;PMS5003;51715;39.432;-77.518;2022-07-30T09:49:26;14;12;
65012;PMS5003;51715;39.432;-77.518;2022-07-30T09:51:55;12;10;
65012;PMS5003;51715;39.432;-77.518;2022-07-30T09:54:23;10;10;
65012;PMS5003;51715;39.432;-77.518;2022-07-30T09:57:10;11;11;
65012;PMS5003;51715;39.432;-77.518;2022-07-30T09:59:38;12;10;
65012;PMS5003;51715;39.432;-77.518;2022-07-30T10:02:07;8;8;
65012;PMS5003;51715;39.432;-77.518;2022-07-30T10:04:36;10;10;
65012;PMS5003;51715;39.432;-77.518;2022-07-30T10:07:05;17;15;
65012;PMS5003;51715;39.432;-77.518;2022-07-30T10:09:46;11;11;
65012;PMS5003;51715;39.432;-77.518;2022-07-30T10:12:14;9;8;
65012;PMS5003;51715;39.432;-77.518;2022-07-30T10:14:44;10;9;
65012;PMS5003;51715;39.432;-77.518;2022-07-30T10:17:14;10;10;
65012;PMS5003;51715;39.432;-77.518;2022-07-30T10:19:43;15;12;
65012;PMS5003;51715;39.432;-77.518;2022-07-30T10:22:11;8;8;
65012;PMS5003;51715;39.432;-77.518;2022-07-30T10:24:40;12;10;
65012;PMS5003;51715;39.432;-77.518;2022-07-30T10:27:10;14;13;
65012;PMS5003;51715;39.432;-77.518;2022-07-30T10:29:40;12;11;
65012;PMS5003;51715;39.432;-77.518;2022-07-30T10:32:09;11;11;
65012;PMS5003;51715;39.432;-77.518;2022-07-30T10:34:38;13;12;
65012;PMS5003;51715;39.432;-77.518;2022-07-30T10:37:07;12;12;
65012;PMS5003;51715;39.432;-77.518;2022-07-30T10:39:37;12;12;
65012;PMS5003;51715;39.432;-77.518;2022-07-30T10:42:15;11;11;
65012;PMS5003;51715;39.432;-77.518;2022-07-30T10:45:00;14;12;
65012;PMS5003;51715;39.432;-77.518;2022-07-30T10:47:41;16;14;
65012;PMS5003;51715;39.432;-77.518;2022-07-30T10:50:10;11;10;
65012;PMS5003;51715;39.432;-77.518;2022-07-30T10:52:44;14;13;
65012;PMS5003;51715;39.432;-77.518;2022-07-30T10:55:15;12;11;
65012;PMS5003;51715;39.432;-77.518;2022-07-30T10:58:11;13;13;
65012;PMS5003;51715;39.432;-77.518;2022-07-30T11:00:57;14;14;
65012;PMS5003;51715;39.432;-77.518;2022-07-30T11:03:26;13;12;
65012;PMS5003;51715;39.432;-77.518;2022-07-30T11:06:23;16;16;
65012;PMS5003;51715;39.432;-77.518;2022-07-30T11:08:52;10;10;
65012;PMS5003;51715;39.432;-77.518;2022-07-30T11:11:41;16;14;
65012;PMS5003;51715;39.432;-77.518;2022-07-30T11:14:11;12;12;
65012;PMS5003;51715;39.432;-77.518;2022-07-30T11:16:57;11;11;
65012;PMS5003;51715;39.432;-77.518;2022-07-30T11:19:27;11;11;
65012;PMS5003;51715;39.432;-77.518;2022-07-30T11:22:29;16;14;
65012;PMS5003;51715;39.432;-77.518;2022-07-30T11:24:58;13;13;
65012;PMS5003;51715;39.432;-77.518;2022-07-30T11:27:35;13;13;
65012;PMS5003;51715;39.432;-77.518;2022-07-30T11:30:29;11;11;
65012;PMS5003;51715;39.432;-77.518;2022-07-30T11:33:20;14;13;
65012;PMS5003;51715;39.432;-77.518;2022-07-30T11:36:04;13;12;
65012;PMS5003;51715;39.432;-77.518;2022-07-30T11:41:08;12;12;
65012;PMS5003;51715;39.432;-77.518;2022-07-30T11:43:37;14;12;
65012;PMS5003;51715;39.432;-77.518;2022-07-30T11:46:06;13;13;
65012;PMS5003;51715;39.432;-77.518;2022-07-30T11:48:36;12;11;
65012;PMS5003;51715;39.432;-77.518;2022-07-30T11:51:07;13;13;
65012;PMS5003;51715;39.432;-77.518;2022-07-30T11:53:37;13;13;
65012;PMS5003;51715;39.432;-77.518;2022-07-30T11:56:05;12;11;
65012;PMS5003;51715;39.432;-77.518;2022-07-30T11:58:33;9;9;
65012;PMS5003;51715;39.432;-77.518;2022-07-30T12:01:04;12;12;
65012;PMS5003;51715;39.432;-77.518;2022-07-30T12:03:38;15;14;
65012;PMS5003;51715;39.432;-77.518;2022-07-30T12:06:10;14;13;
65012;PMS5003;51715;39.432;-77.518;2022-07-30T12:08:40;14;14;
65012;PMS5003;51715;39.432;-77.518;2022-07-30T12:11:11;10;10;
65012;PMS5003;51715;39.432;-77.518;2022-07-30T12:13:41;10;10;
65012;PMS5003;51715;39.432;-77.518;2022-07-30T12:16:11;9;9;
65012;PMS5003;51715;39.432;-77.518;2022-07-30T12:18:40;13;13;
65012;PMS5003;51715;39.432;-77.518;2022-07-30T12:21:08;9;9;
65012;PMS5003;51715;39.432;-77.518;2022-07-30T12:23:37;8;8;
65012;PMS5003;51715;39.432;-77.518;2022-07-30T12:26:05;11;10;
65012;PMS5003;51715;39.432;-77.518;2022-07-30T12:28:35;8;8;
65012;PMS5003;51715;39.432;-77.518;2022-07-30T12:31:09;9;9;
65012;PMS5003;51715;39.432;-77.518;2022-07-30T12:33:43;11;11;
65012;PMS5003;51715;39.432;-77.518;2022-07-30T12:36:22;7;7;
65012;PMS5003;51715;39.432;-77.518;2022-07-30T12:38:52;7;7;
65012;PMS5003;51715;39.432;-77.518;2022-07-30T12:41:20;7;7;
65012;PMS5003;51715;39.432;-77.518;2022-07-30T12:44:06;7;7;
65012;PMS5003;51715;39.432;-77.518;2022-07-30T12:46:36;9;8;
65012;PMS5003;51715;39.432;-77.518;2022-07-30T12:49:10;8;8;
65012;PMS5003;51715;39.432;-77.518;2022-07-30T12:51:48;6;6;
65012;PMS5003;51715;39.432;-77.518;2022-07-30T12:54:19;8;7;
65012;PMS5003;51715;39.432;-77.518;2022-07-30T12:56:57;8;8;
65012;PMS5003;51715;39.432;-77.518;2022-07-30T12:59:27;7;7;
65012;PMS5003;51715;39.432;-77.518;2022-07-30T13:01:56;12;10;
65012;PMS5003;51715;39.432;-77.518;2022-07-30T13:04:25;8;8;
65012;PMS5003;51715;39.432;-77.518;2022-07-30T13:07:10;7;7;
65012;PMS5003;51715;39.432;-77.518;2022-07-30T13:09:40;7;7;
65012;PMS5003;51715;39.432;-77.518;2022-07-30T13:12:11;6;6;
65012;PMS5003;51715;39.432;-77.518;2022-07-30T13:14:39;9;8;
65012;PMS5003;51715;39.432;-77.518;2022-07-30T13:17:07;8;7;
65012;PMS5003;51715;39.432;-77.518;2022-07-30T13:19:36;6;6;
65012;PMS5003;51715;39.432;-77.518;2022-07-30T13:22:04;8;8;
65012;PMS5003;51715;39.432;-77.518;2022-07-30T13:24:33;7;7;
65012;PMS5003;51715;39.432;-77.518;2022-07-30T13:27:02;8;8;
65012;PMS5003;51715;39.432;-77.518;2022-07-30T13:29:30;6;6;
65012;PMS5003;51715;39.432;-77.518;2022-07-30T13:31:59;3;3;
65012;PMS5003;51715;39.432;-77.518;2022-07-30T13:34:29;5;5;
65012;PMS5003;51715;39.432;-77.518;2022-07-30T13:36:56;6;6;
65012;PMS5003;51715;39.432;-77.518;2022-07-30T13:39:24;5;5;
65012;PMS5003;51715;39.432;-77.518;2022-07-30T13:41:54;6;6;
65012;PMS5003;51715;39.432;-77.518;2022-07-30T13:44:23;6;6;
65012;PMS5003;51715;39.432;-77.518;2022-07-30T13:46:51;5;5;
65012;PMS5003;51715;39.432;-77.518;2022-07-30T13:49:19;5;5;
65012;PMS5003;51715;39.432;-77.518;2022-07-30T13:51:48;4;4;
65012;PMS5003;51715;39.432;-77.518;2022-07-30T13:54:16;5;5;
65012;PMS5003;51715;39.432;-77.518;2022-07-30T13:56:45;5;5;
65012;PMS5003;51715;39.432;-77.518;2022-07-30T13:59:14;3;3;
65012;PMS5003;51715;39.432;-77.518;2022-07-30T14:01:44;4;4;
65012;PMS5003;51715;39.432;-77.518;2022-07-30T14:04:13;6;6;
65012;PMS5003;51715;39.432;-77.518;2022-07-30T14:06:42;4;4;
65012;PMS5003;51715;39.432;-77.518;2022-07-30T14:09:11;4;4;
65012;PMS5003;51715;39.432;-77.518;2022-07-30T14:11:40;1;1;
65012;PMS5003;51715;39.432;-77.518;2022-07-30T14:14:08;2;2;
65012;PMS5003;51715;39.432;-77.518;2022-07-30T14:16:37;4;4;
65012;PMS5003;51715;39.432;-77.518;2022-07-30T14:19:05;4;3;
65012;PMS5003;51715;39.432;-77.518;2022-07-30T14:21:34;3;3;
65012;PMS5003;51715;39.432;-77.518;2022-07-30T14:24:03;5;3;
65012;PMS5003;51715;39.432;-77.518;2022-07-30T14:26:32;4;4;
65012;PMS5003;51715;39.432;-77.518;2022-07-30T14:29:01;3;3;
65012;PMS5003;51715;39.432;-77.518;2022-07-30T14:31:30;5;5;
65012;PMS5003;51715;39.432;-77.518;2022-07-30T14:33:58;5;3;
65012;PMS5003;51715;39.432;-77.518;2022-07-30T14:36:27;3;3;
65012;PMS5003;51715;39.432;-77.518;2022-07-30T14:38:56;2;2;
65012;PMS5003;51715;39.432;-77.518;2022-07-30T14:41:25;3;3;
65012;PMS5003;51715;39.432;-77.518;2022-07-30T14:43:53;2;2;
65012;PMS5003;51715;39.432;-77.518;2022-07-30T14:46:22;4;4;
65012;PMS5003;51715;39.432;-77.518;2022-07-30T14:48:51;3;3;
65012;PMS5003;51715;39.432;-77.518;2022-07-30T14:51:19;2;2;
65012;PMS5003;51715;39.432;-77.518;2022-07-30T14:53:47;4;4;
65012;PMS5003;51715;39.432;-77.518;2022-07-30T14:56:17;6;6;
65012;PMS5003;51715;39.432;-77.518;2022-07-30T14:58:45;2;2;
65012;PMS5003;51715;39.432;-77.518;2022-07-30T15:01:13;2;2;
65012;PMS5003;51715;39.432;-77.518;2022-07-30T15:03:43;5;5;
65012;PMS5003;51715;39.432;-77.518;2022-07-30T15:06:12;2;2;
65012;PMS5003;51715;39.432;-77.518;2022-07-30T15:08:41;4;4;
65012;PMS5003;51715;39.432;-77.518;2022-07-30T15:11:10;3;3;
65012;PMS5003;51715;39.432;-77.518;2022-07-30T15:13:38;3;3;
65012;PMS5003;51715;39.432;-77.518;2022-07-30T15:16:06;2;2;
65012;PMS5003;51715;39.432;-77.518;2022-07-30T15:18:35;3;3;
65012;PMS5003;51715;39.432;-77.518;2022-07-30T15:21:04;3;3;
65012;PMS5003;51715;39.432;-77.518;2022-07-30T15:23:34;2;2;
65012;PMS5003;51715;39.432;-77.518;2022-07-30T15:26:03;4;4;
65012;PMS5003;51715;39.432;-77.518;2022-07-30T15:28:31;2;2;
65012;PMS5003;51715;39.432;-77.518;2022-07-30T15:30:59;3;3;
65012;PMS5003;51715;39.432;-77.518;2022-07-30T15:33:30;3;3;
65012;PMS5003;51715;39.432;-77.518;2022-07-30T15:35:59;2;2;
65012;PMS5003;51715;39.432;-77.518;2022-07-30T15:38:26;4;2;
65012;PMS5003;51715;39.432;-77.518;2022-07-30T15:40:55;2;2;
65012;PMS5003;51715;39.432;-77.518;2022-07-30T15:43:23;3;3;
65012;PMS5003;51715;39.432;-77.518;2022-07-30T15:45:52;3;3;
65012;PMS5003;51715;39.432;-77.518;2022-07-30T15:48:19;4;4;
65012;PMS5003;51715;39.432;-77.518;2022-07-30T15:50:48;2;2;
65012;PMS5003;51715;39.432;-77.518;2022-07-30T15:53:17;3;3;
65012;PMS5003;51715;39.432;-77.518;2022-07-30T15:55:45;2;2;
65012;PMS5003;51715;39.432;-77.518;2022-07-30T15:58:14;2;2;
65012;PMS5003;51715;39.432;-77.518;2022-07-30T16:00:42;2;2;
65012;PMS5003;51715;39.432;-77.518;2022-07-30T16:03:13;2;2;
65012;PMS5003;51715;39.432;-77.518;2022-07-30T16:05:42;1;1;
65012;PMS5003;51715;39.432;-77.518;2022-07-30T16:08:10;0;0;
65012;PMS5003;51715;39.432;-77.518;2022-07-30T16:15:18;3;3;
65012;PMS5003;51715;39.432;-77.518;2022-07-30T16:17:47;3;3;
65012;PMS5003;51715;39.432;-77.518;2022-07-30T16:20:15;2;2;
65012;PMS5003;51715;39.432;-77.518;2022-07-30T16:22:44;2;2;
65012;PMS5003;51715;39.432;-77.518;2022-07-30T16:25:13;3;2;
65012;PMS5003;51715;39.432;-77.518;2022-07-30T16:27:42;1;1;